West Delhi, New York
Current Conditions -  °F | °C
As of 4:55 PM on Monday 22 Dec 2014 (Local Time) from KMSV Reporting Station
Overcast Overcast  
Wind Chill: -3°   Ceiling: 300
Heat Index:   Visibility: 5mi
Dew Point:   Wind: 6mph
Humidity: 100%   Direction: 80°E
Pressure: 30.2"   Gusts: NA
Location:  42.3065°N, 74.9298°W
Report Text: KMSV 222155Z AUTO 08005KT 5SM OVC003 00/00 A3020 RMK AO1
Loading
Personal Weather Stations






























Interactive Weather Map New forecast layout! Learn more

10-Day Weather Forecast

Advertisements
Track Severe Weather on mobile